createdAt,value
2022-12-04T00:01:28.152Z,19.20
2022-12-04T00:03:59.150Z,19.27
2022-12-04T00:06:27.900Z,19.13
2022-12-04T00:08:55.998Z,18.65
2022-12-04T00:13:52.596Z,19.23
2022-12-04T00:16:23.558Z,19.10
2022-12-04T00:18:52.152Z,19.38
2022-12-04T00:21:21.409Z,18.85
2022-12-04T00:23:49.806Z,19.00
2022-12-04T00:26:23.216Z,19.75
2022-12-04T00:28:51.943Z,19.75
2022-12-04T00:31:23.058Z,19.20
2022-12-04T00:33:50.670Z,18.60
2022-12-04T00:36:20.478Z,19.45
2022-12-04T00:38:48.359Z,20.48
2022-12-04T00:41:19.617Z,20.08
2022-12-04T00:43:47.311Z,20.05
2022-12-04T00:46:15.196Z,21.00
2022-12-04T00:48:43.514Z,18.75
2022-12-04T00:53:43.460Z,19.17
2022-12-04T00:56:14.833Z,18.10
2022-12-04T00:58:42.569Z,19.88
2022-12-04T01:01:13.939Z,19.13
2022-12-04T01:03:42.078Z,20.50
2022-12-04T01:08:45.519Z,19.25
2022-12-04T01:11:13.044Z,20.02
2022-12-04T01:13:40.606Z,20.77
2022-12-04T01:16:08.220Z,20.67
2022-12-04T01:18:35.822Z,18.63
2022-12-04T01:21:03.393Z,20.58
2022-12-04T01:23:30.942Z,19.40
2022-12-04T01:25:59.487Z,20.58
2022-12-04T01:28:27.315Z,19.02
2022-12-04T01:31:04.573Z,19.77
2022-12-04T01:33:34.108Z,20.75
2022-12-04T01:36:03.281Z,20.85
2022-12-04T01:38:31.093Z,20.55
2022-12-04T01:40:58.987Z,19.98
2022-12-04T01:43:28.944Z,19.65
2022-12-04T01:45:58.290Z,20.45
2022-12-04T01:48:31.129Z,19.48
2022-12-04T01:51:04.929Z,19.60
2022-12-04T01:53:35.144Z,19.85
2022-12-04T01:56:04.268Z,20.77
2022-12-04T01:58:36.270Z,20.02
2022-12-04T02:01:09.099Z,20.85
2022-12-04T02:03:38.125Z,21.17
2022-12-04T02:06:06.680Z,21.38
2022-12-04T02:08:35.620Z,22.23
2022-12-04T02:11:26.099Z,21.70
2022-12-04T02:14:15.632Z,22.05
2022-12-04T02:16:55.879Z,21.95
2022-12-04T02:19:44.982Z,21.25
2022-12-04T02:22:45.213Z,19.73
2022-12-04T02:25:27.767Z,19.70
2022-12-04T02:27:59.934Z,21.15
2022-12-04T02:30:30.428Z,21.90
2022-12-04T02:33:03.568Z,21.25
2022-12-04T02:35:38.292Z,22.35
2022-12-04T02:38:33.231Z,22.20
2022-12-04T02:41:44.789Z,23.05
2022-12-04T02:44:21.974Z,22.92
2022-12-04T02:46:56.006Z,22.92
2022-12-04T02:49:38.469Z,22.30
2022-12-04T02:52:12.562Z,23.38
2022-12-04T02:54:45.801Z,23.55
2022-12-04T02:57:20.486Z,25.13
2022-12-04T02:59:50.432Z,24.35
2022-12-04T03:02:25.393Z,24.63
2022-12-04T03:04:55.356Z,23.92
2022-12-04T03:07:34.263Z,24.33
2022-12-04T03:10:15.452Z,23.67
2022-12-04T03:13:02.413Z,24.17
2022-12-04T03:16:03.660Z,23.40
2022-12-04T03:18:38.073Z,23.63
2022-12-04T03:21:11.045Z,23.92
2022-12-04T03:23:47.104Z,24.83
2022-12-04T03:26:38.131Z,24.33
2022-12-04T03:29:29.918Z,23.23
2022-12-04T03:32:26.688Z,24.23
2022-12-04T03:35:02.032Z,26.10
2022-12-04T03:37:44.596Z,24.92
2022-12-04T03:40:23.905Z,26.67
2022-12-04T03:43:06.276Z,26.77
2022-12-04T03:45:42.343Z,27.40
2022-12-04T03:48:34.759Z,27.17
2022-12-04T03:51:09.014Z,25.60
2022-12-04T03:53:52.489Z,26.48
2022-12-04T03:56:27.637Z,25.98
2022-12-04T03:59:09.870Z,27.80
2022-12-04T04:01:42.271Z,28.05
2022-12-04T04:04:15.856Z,28.52
2022-12-04T04:06:49.158Z,29.55
2022-12-04T04:09:21.516Z,27.88
2022-12-04T04:12:14.140Z,29.17
2022-12-04T04:15:11.797Z,29.83
2022-12-04T04:21:01.245Z,27.70
2022-12-04T04:23:52.903Z,31.38
2022-12-04T04:26:22.464Z,29.73
2022-12-04T04:28:49.937Z,30.10
2022-12-04T04:31:36.303Z,32.83
2022-12-04T04:34:25.996Z,31.20
2022-12-04T04:37:05.108Z,31.52
2022-12-04T04:39:44.677Z,33.38
2022-12-04T04:42:22.634Z,32.90
2022-12-04T04:45:08.114Z,31.85
2022-12-04T04:47:45.334Z,34.28
2022-12-04T04:50:15.101Z,33.50
2022-12-04T04:52:47.497Z,33.42
2022-12-04T04:55:17.850Z,34.15
2022-12-04T04:57:46.009Z,32.53
2022-12-04T05:00:22.331Z,32.92
2022-12-04T05:02:50.442Z,32.92
2022-12-04T05:05:18.599Z,31.63
2022-12-04T05:07:46.112Z,33.10
2022-12-04T05:10:14.087Z,34.15
2022-12-04T05:12:41.559Z,34.15
2022-12-04T05:15:09.675Z,35.10
2022-12-04T05:17:37.164Z,32.63
2022-12-04T05:20:05.722Z,34.63
2022-12-04T05:22:35.254Z,33.10
2022-12-04T05:25:04.140Z,32.97
2022-12-04T05:27:32.497Z,33.25
2022-12-04T05:30:00.531Z,34.10
2022-12-04T05:32:29.504Z,34.08
2022-12-04T05:34:57.748Z,35.08
2022-12-04T05:37:25.725Z,33.78
2022-12-04T05:39:53.868Z,33.88
2022-12-04T05:42:22.038Z,34.20
2022-12-04T05:44:50.293Z,35.15
2022-12-04T05:47:17.897Z,36.53
2022-12-04T05:49:45.444Z,35.08
2022-12-04T05:52:13.226Z,32.72
2022-12-04T05:54:40.784Z,33.45
2022-12-04T05:57:08.776Z,32.92
2022-12-04T05:59:36.866Z,31.00
2022-12-04T06:02:04.402Z,32.13
2022-12-04T06:04:32.240Z,32.13
2022-12-04T06:06:59.726Z,31.45
2022-12-04T06:09:27.374Z,33.20
2022-12-04T06:11:58.064Z,32.40
2022-12-04T06:14:25.794Z,30.73
2022-12-04T06:16:53.405Z,30.67
2022-12-04T06:19:22.435Z,31.85
2022-12-04T06:21:52.344Z,31.30
2022-12-04T06:24:24.595Z,30.85
2022-12-04T06:27:26.351Z,30.95
2022-12-04T06:29:44.994Z,29.42
2022-12-04T06:32:16.507Z,30.98
2022-12-04T06:34:45.646Z,29.55
2022-12-04T06:37:13.160Z,30.27
2022-12-04T06:39:40.667Z,31.13
2022-12-04T06:42:08.145Z,31.58
2022-12-04T06:44:35.889Z,29.20
2022-12-04T06:47:03.455Z,27.27
2022-12-04T06:49:31.079Z,29.45
2022-12-04T06:52:00.621Z,27.58
2022-12-04T06:54:28.185Z,27.08
2022-12-04T06:56:55.811Z,27.58
2022-12-04T06:59:23.865Z,27.75
2022-12-04T07:04:18.895Z,24.90
2022-12-04T07:06:46.348Z,25.13
2022-12-04T07:09:15.929Z,25.85
2022-12-04T07:11:45.091Z,26.80
2022-12-04T07:14:14.620Z,25.88
2022-12-04T07:16:43.086Z,25.63
2022-12-04T07:19:13.565Z,25.48
2022-12-04T07:21:42.100Z,24.63
2022-12-04T07:26:40.771Z,24.35
2022-12-04T07:29:08.489Z,26.52
2022-12-04T07:31:36.219Z,24.55
2022-12-04T07:34:03.859Z,26.08
2022-12-04T07:36:31.433Z,24.77
2022-12-04T07:38:58.921Z,23.95
2022-12-04T07:41:26.424Z,25.25
2022-12-04T07:43:54.416Z,23.52
2022-12-04T07:46:25.833Z,23.98
2022-12-04T07:48:56.613Z,24.52
2022-12-04T07:51:26.495Z,24.00
2022-12-04T07:53:54.751Z,27.80
2022-12-04T07:58:49.584Z,27.90
2022-12-04T08:01:20.985Z,24.77
2022-12-04T08:03:51.632Z,33.85
2022-12-04T08:06:21.766Z,32.33
2022-12-04T08:08:49.944Z,26.10
2022-12-04T08:13:46.799Z,26.65
2022-12-04T08:16:15.891Z,24.95
2022-12-04T08:18:46.835Z,22.10
2022-12-04T08:21:20.938Z,21.35
2022-12-04T08:23:50.632Z,22.77
2022-12-04T08:26:20.149Z,24.35
2022-12-04T08:28:48.120Z,22.42
2022-12-04T08:31:19.621Z,19.83
2022-12-04T08:33:48.237Z,21.13
2022-12-04T08:36:19.278Z,20.13
2022-12-04T08:38:50.991Z,19.25
2022-12-04T08:41:23.931Z,19.20
2022-12-04T08:43:54.762Z,22.77
2022-12-04T08:46:23.579Z,17.35
2022-12-04T08:48:51.531Z,16.77
2022-12-04T08:51:21.613Z,16.95
2022-12-04T08:53:52.884Z,18.63
2022-12-04T08:56:20.478Z,17.58
2022-12-04T08:58:48.257Z,17.48
2022-12-04T09:01:16.480Z,18.20
2022-12-04T09:06:16.753Z,16.92
2022-12-04T09:08:44.805Z,17.42
2022-12-04T09:11:15.885Z,18.35
2022-12-04T09:13:44.445Z,17.70
2022-12-04T09:16:18.249Z,18.38
2022-12-04T09:18:46.205Z,18.50
2022-12-04T09:21:16.107Z,18.02
2022-12-04T09:23:43.870Z,19.02
2022-12-04T09:26:22.545Z,18.17
2022-12-04T09:28:50.884Z,18.50
2022-12-04T09:31:19.927Z,18.13
2022-12-04T09:33:47.933Z,19.60
2022-12-04T09:36:18.259Z,18.88
2022-12-04T09:38:48.365Z,19.65
2022-12-04T09:41:25.089Z,20.85
2022-12-04T09:43:58.582Z,19.30
2022-12-04T09:46:32.520Z,19.25
2022-12-04T09:49:04.941Z,20.70
2022-12-04T09:51:35.135Z,19.30
2022-12-04T09:54:14.820Z,20.45
2022-12-04T09:56:47.180Z,20.33
2022-12-04T09:59:25.718Z,20.77
2022-12-04T10:02:13.048Z,20.50
2022-12-04T10:04:43.029Z,21.25
2022-12-04T10:07:16.558Z,20.63
2022-12-04T10:10:17.908Z,20.73
2022-12-04T10:13:25.428Z,22.25
2022-12-04T10:15:56.084Z,21.90
2022-12-04T10:18:30.058Z,21.15
2022-12-04T10:21:25.861Z,20.65
2022-12-04T10:24:16.189Z,22.45
2022-12-04T10:26:48.506Z,22.70
2022-12-04T10:29:30.785Z,22.92
2022-12-04T10:32:18.379Z,22.70
2022-12-04T10:34:48.408Z,21.00
2022-12-04T10:37:16.117Z,23.23
2022-12-04T10:39:55.181Z,22.10
2022-12-04T10:42:37.913Z,21.00
2022-12-04T10:45:06.940Z,18.15
2022-12-04T10:47:38.456Z,18.48
2022-12-04T10:50:19.175Z,16.52
2022-12-04T10:52:47.045Z,16.92
2022-12-04T10:55:15.453Z,16.08
2022-12-04T10:57:46.698Z,15.77
2022-12-04T11:00:33.685Z,16.70
2022-12-04T11:03:04.143Z,14.60
2022-12-04T11:05:34.737Z,15.73
2022-12-04T11:08:06.702Z,14.30
2022-12-04T11:10:40.420Z,14.65
2022-12-04T11:13:11.017Z,14.10
2022-12-04T11:15:50.314Z,13.55
2022-12-04T11:18:46.830Z,13.00
2022-12-04T11:21:17.652Z,13.50
2022-12-04T11:23:50.218Z,12.77
2022-12-04T11:26:33.782Z,13.80
2022-12-04T11:29:02.077Z,13.40
2022-12-04T11:31:31.413Z,13.93
2022-12-04T11:34:03.506Z,14.27
2022-12-04T11:36:34.823Z,12.80
2022-12-04T11:39:19.080Z,13.43
2022-12-04T11:41:46.570Z,13.80
2022-12-04T11:44:28.522Z,13.80
2022-12-04T11:47:02.395Z,13.43
2022-12-04T11:49:32.299Z,13.73
2022-12-04T11:52:37.373Z,14.02
2022-12-04T11:55:22.423Z,13.85
2022-12-04T11:57:57.383Z,15.63
2022-12-04T12:00:26.413Z,15.20
2022-12-04T12:03:16.853Z,14.45
2022-12-04T12:05:59.432Z,14.95
2022-12-04T12:08:37.243Z,14.88
2022-12-04T12:11:16.956Z,14.90
2022-12-04T12:14:08.716Z,14.50
2022-12-04T12:19:24.680Z,14.32
2022-12-04T12:22:08.517Z,14.30
2022-12-04T12:24:54.938Z,13.02
2022-12-04T12:28:05.218Z,14.55
2022-12-04T12:30:52.906Z,14.15
2022-12-04T12:33:25.007Z,14.35
2022-12-04T12:36:12.818Z,14.93
2022-12-04T12:39:15.298Z,15.57
2022-12-04T12:41:49.515Z,15.02
2022-12-04T12:44:34.814Z,15.13
2022-12-04T12:47:16.443Z,15.68
2022-12-04T12:50:04.964Z,14.75
2022-12-04T12:52:57.858Z,15.52
2022-12-04T12:55:42.085Z,16.23
2022-12-04T12:58:09.487Z,15.48
2022-12-04T13:00:54.623Z,15.82
2022-12-04T13:03:49.274Z,15.98
2022-12-04T13:06:22.256Z,16.20
2022-12-04T13:09:19.414Z,14.93
2022-12-04T13:11:49.724Z,15.32
2022-12-04T13:14:22.894Z,15.02
2022-12-04T13:17:11.312Z,16.23
2022-12-04T13:19:46.210Z,14.82
2022-12-04T13:22:18.369Z,16.02
2022-12-04T13:25:07.637Z,14.07
2022-12-04T13:27:48.239Z,13.85
2022-12-04T13:30:40.566Z,14.48
2022-12-04T13:33:47.070Z,13.63
2022-12-04T13:36:49.784Z,13.15
2022-12-04T13:39:27.194Z,13.43
2022-12-04T13:42:00.640Z,13.02
2022-12-04T13:44:29.766Z,12.80
2022-12-04T13:47:04.421Z,12.20
2022-12-04T13:49:37.854Z,12.90
2022-12-04T13:52:22.148Z,12.15
2022-12-04T13:54:59.876Z,12.15
2022-12-04T13:57:28.312Z,14.02
2022-12-04T14:00:07.299Z,12.98
2022-12-04T14:02:50.583Z,13.48
2022-12-04T14:05:27.709Z,14.07
2022-12-04T14:08:07.149Z,13.10
2022-12-04T14:10:37.993Z,14.05
2022-12-04T14:13:28.110Z,13.80
2022-12-04T14:16:16.705Z,12.82
2022-12-04T14:18:56.389Z,13.05
2022-12-04T14:21:24.730Z,12.85
2022-12-04T14:27:09.927Z,13.25
2022-12-04T14:29:30.927Z,13.30
2022-12-04T14:32:01.054Z,12.77
2022-12-04T14:34:33.126Z,13.65
2022-12-04T14:37:02.087Z,13.73
2022-12-04T14:39:48.314Z,14.95
2022-12-04T14:42:26.600Z,15.32
2022-12-04T14:45:02.424Z,15.23
2022-12-04T14:47:43.662Z,16.30
2022-12-04T14:50:27.325Z,17.48
2022-12-04T14:53:05.071Z,15.40
2022-12-04T14:56:07.772Z,14.93
2022-12-04T14:58:38.528Z,13.60
2022-12-04T15:01:29.619Z,14.48
2022-12-04T15:04:01.255Z,16.42
2022-12-04T15:06:31.555Z,14.45
2022-12-04T15:09:22.649Z,14.52
2022-12-04T15:12:14.179Z,14.32
2022-12-04T15:14:47.466Z,12.48
2022-12-04T15:17:18.010Z,12.95
2022-12-04T15:19:45.898Z,14.50
2022-12-04T15:22:28.414Z,13.77
2022-12-04T15:24:56.473Z,12.82
2022-12-04T15:27:32.029Z,11.80
2022-12-04T15:30:02.297Z,12.38
2022-12-04T15:32:31.661Z,11.23
2022-12-04T15:35:06.812Z,12.40
2022-12-04T15:37:34.460Z,11.93
2022-12-04T15:40:06.941Z,13.00
2022-12-04T15:42:34.466Z,11.57
2022-12-04T15:45:22.513Z,12.32
2022-12-04T15:47:53.729Z,12.55
2022-12-04T15:50:27.040Z,11.88
2022-12-04T15:53:15.573Z,12.73
2022-12-04T15:56:09.340Z,11.88
2022-12-04T15:58:39.470Z,13.32
2022-12-04T16:01:13.062Z,12.15
2022-12-04T16:03:43.686Z,12.38
2022-12-04T16:06:16.680Z,12.15
2022-12-04T16:08:46.291Z,12.40
2022-12-04T16:11:22.779Z,12.15
2022-12-04T16:14:04.224Z,11.43
2022-12-04T16:16:31.955Z,13.05
2022-12-04T16:19:02.251Z,12.38
2022-12-04T16:21:31.476Z,13.68
2022-12-04T16:24:03.777Z,13.05
2022-12-04T16:26:31.817Z,13.35
2022-12-04T16:28:59.662Z,15.48
2022-12-04T16:31:27.338Z,16.45
2022-12-04T16:33:54.933Z,15.68
2022-12-04T16:36:22.340Z,16.63
2022-12-04T16:38:50.457Z,16.33
2022-12-04T16:41:19.396Z,16.05
2022-12-04T16:43:54.953Z,16.60
2022-12-04T16:46:25.048Z,17.60
2022-12-04T16:48:53.111Z,16.70
2022-12-04T16:51:25.988Z,18.20
2022-12-04T16:53:54.712Z,14.88
2022-12-04T16:56:22.674Z,16.83
2022-12-04T16:58:50.250Z,17.10
2022-12-04T17:01:25.372Z,16.52
2022-12-04T17:03:53.271Z,16.67
2022-12-04T17:06:20.887Z,15.32
2022-12-04T17:08:48.385Z,16.67
2022-12-04T17:11:17.708Z,15.70
2022-12-04T17:13:45.735Z,15.45
2022-12-04T17:16:15.189Z,15.90
2022-12-04T17:18:43.921Z,15.55
2022-12-04T17:21:13.183Z,15.88
2022-12-04T17:23:41.147Z,16.15
2022-12-04T17:26:11.263Z,15.18
2022-12-04T17:28:39.539Z,15.40
2022-12-04T17:31:25.174Z,16.38
2022-12-04T17:33:53.424Z,16.58
2022-12-04T17:38:56.744Z,16.85
2022-12-04T17:41:24.521Z,17.50
2022-12-04T17:43:55.079Z,17.02
2022-12-04T17:46:24.470Z,17.85
2022-12-04T17:48:55.342Z,16.85
2022-12-04T17:51:24.725Z,16.42
2022-12-04T17:53:52.457Z,16.88
2022-12-04T17:56:22.840Z,16.88
2022-12-04T17:58:51.560Z,17.38
2022-12-04T18:01:21.710Z,17.20
2022-12-04T18:04:03.395Z,16.95
2022-12-04T18:06:34.074Z,18.17
2022-12-04T18:09:02.415Z,19.23
2022-12-04T18:11:31.585Z,18.17
2022-12-04T18:14:04.834Z,19.45
2022-12-04T18:16:36.916Z,19.58
2022-12-04T18:19:04.506Z,18.58
2022-12-04T18:21:33.176Z,19.50
2022-12-04T18:24:03.532Z,20.85
2022-12-04T18:26:36.588Z,18.58
2022-12-04T18:29:04.999Z,18.70
2022-12-04T18:31:33.778Z,19.60
2022-12-04T18:34:01.697Z,18.40
2022-12-04T18:36:30.797Z,18.50
2022-12-04T18:39:01.192Z,18.10
2022-12-04T18:41:29.752Z,18.30
2022-12-04T18:43:57.694Z,18.42
2022-12-04T18:46:25.756Z,18.58
2022-12-04T18:48:55.310Z,17.33
2022-12-04T18:51:26.735Z,18.48
2022-12-04T18:53:58.553Z,18.15
2022-12-04T18:56:26.873Z,18.33
2022-12-04T18:58:59.639Z,18.45
2022-12-04T19:01:28.161Z,19.35
2022-12-04T19:03:58.299Z,18.08
2022-12-04T19:06:38.015Z,18.63
2022-12-04T19:09:10.207Z,19.60
2022-12-04T19:11:39.383Z,17.45
2022-12-04T19:14:16.049Z,19.95
2022-12-04T19:16:48.764Z,20.25
2022-12-04T19:19:16.912Z,19.40
2022-12-04T19:24:12.303Z,21.15
2022-12-04T19:26:40.185Z,20.67
2022-12-04T19:29:08.388Z,20.58
2022-12-04T19:34:06.309Z,18.58
2022-12-04T19:36:35.167Z,21.25
2022-12-04T19:39:04.485Z,18.85
2022-12-04T19:41:34.789Z,19.25
2022-12-04T19:44:14.658Z,17.15
2022-12-04T19:46:50.338Z,18.45
2022-12-04T19:49:20.852Z,17.80
2022-12-04T19:51:49.370Z,18.45
2022-12-04T19:54:17.801Z,19.75
2022-12-04T19:56:49.098Z,18.10
2022-12-04T19:59:17.606Z,18.58
2022-12-04T20:01:45.086Z,18.92
2022-12-04T20:04:13.091Z,19.92
2022-12-04T20:06:44.325Z,18.45
2022-12-04T20:09:14.753Z,17.50
2022-12-04T20:11:42.365Z,18.58
2022-12-04T20:14:10.315Z,16.92
2022-12-04T20:16:38.606Z,16.60
2022-12-04T20:19:13.071Z,16.73
2022-12-04T20:21:40.614Z,16.92
2022-12-04T20:24:08.475Z,17.50
2022-12-04T20:26:38.574Z,16.77
2022-12-04T20:29:08.699Z,16.52
2022-12-04T20:31:38.785Z,16.70
2022-12-04T20:34:11.069Z,17.60
2022-12-04T20:36:41.254Z,18.17
2022-12-04T20:39:09.643Z,17.20
2022-12-04T20:41:37.788Z,18.42
2022-12-04T20:46:36.522Z,17.02
2022-12-04T20:49:17.277Z,17.75
2022-12-04T20:51:48.073Z,17.73
2022-12-04T20:54:18.580Z,19.10
2022-12-04T20:56:48.689Z,18.13
2022-12-04T20:59:18.314Z,18.63
2022-12-04T21:01:46.927Z,19.10
2022-12-04T21:04:18.991Z,19.65
2022-12-04T21:06:47.106Z,20.20
2022-12-04T21:11:55.313Z,19.08
2022-12-04T21:14:47.338Z,19.77
2022-12-04T21:17:18.887Z,21.13
2022-12-04T21:19:49.561Z,21.70
2022-12-04T21:22:18.370Z,20.48
2022-12-04T21:24:45.922Z,18.92
2022-12-04T21:27:20.403Z,21.30
2022-12-04T21:29:49.594Z,22.08
2022-12-04T21:32:18.824Z,21.25
2022-12-04T21:34:46.358Z,20.70
2022-12-04T21:37:14.009Z,20.38
2022-12-04T21:39:43.187Z,20.80
2022-12-04T21:42:29.439Z,20.10
2022-12-04T21:44:58.251Z,18.92
2022-12-04T21:47:26.834Z,20.33
2022-12-04T21:49:54.729Z,22.23
2022-12-04T21:52:22.390Z,20.20
2022-12-04T21:54:54.225Z,20.83
2022-12-04T21:57:22.376Z,20.77
2022-12-04T22:02:21.253Z,20.75
2022-12-04T22:04:49.002Z,21.25
2022-12-04T22:07:18.850Z,21.80
2022-12-04T22:09:46.354Z,22.33
2022-12-04T22:12:41.366Z,22.48
2022-12-04T22:15:01.325Z,21.38
2022-12-04T22:17:29.816Z,21.67
2022-12-04T22:19:57.515Z,21.48
2022-12-04T22:22:25.243Z,22.40
2022-12-04T22:24:52.696Z,22.27
2022-12-04T22:27:20.153Z,23.65
2022-12-04T22:29:50.954Z,21.80
2022-12-04T22:32:19.725Z,22.33
2022-12-04T22:34:50.287Z,21.35
2022-12-04T22:37:18.268Z,21.27
2022-12-04T22:39:45.830Z,22.90
2022-12-04T22:42:13.371Z,22.45
2022-12-04T22:44:40.807Z,23.20
2022-12-04T22:47:08.341Z,22.58
2022-12-04T22:49:35.890Z,23.30
2022-12-04T22:52:03.606Z,23.63
2022-12-04T22:54:31.069Z,23.25
2022-12-04T22:56:58.534Z,22.40
2022-12-04T22:59:26.155Z,21.23
2022-12-04T23:01:53.596Z,23.80
2022-12-04T23:04:21.072Z,22.92
2022-12-04T23:06:48.502Z,23.10
2022-12-04T23:09:17.591Z,23.75
2022-12-04T23:11:45.419Z,25.25
2022-12-04T23:14:14.699Z,24.38
2022-12-04T23:16:42.984Z,25.80
2022-12-04T23:19:14.038Z,25.55
2022-12-04T23:21:41.884Z,26.30
2022-12-04T23:24:10.429Z,27.70
2022-12-04T23:26:41.736Z,26.98
2022-12-04T23:29:29.741Z,27.23
2022-12-04T23:31:56.655Z,27.88
2022-12-04T23:34:24.458Z,27.10
2022-12-04T23:36:52.077Z,27.27
2022-12-04T23:39:19.503Z,26.58
2022-12-04T23:41:47.015Z,27.83
2022-12-04T23:44:14.590Z,29.00
2022-12-04T23:46:42.328Z,28.25
2022-12-04T23:49:09.854Z,29.58
2022-12-04T23:51:37.381Z,29.65
2022-12-04T23:54:04.866Z,28.00
2022-12-04T23:56:32.712Z,30.83
2022-12-04T23:59:00.146Z,30.90
